createdAt,value
2018-09-02T00:01:50.259Z,97.30
2018-09-02T00:04:18.399Z,97.95
2018-09-02T00:06:46.504Z,97.66
2018-09-02T00:09:14.626Z,97.95
2018-09-02T00:11:42.765Z,97.91
2018-09-02T00:14:10.891Z,97.99
2018-09-02T00:16:38.982Z,98.27
2018-09-02T00:19:07.063Z,99.25
2018-09-02T00:21:35.230Z,98.98
2018-09-02T00:24:03.355Z,98.58
2018-09-02T00:26:31.479Z,98.01
2018-09-02T00:28:59.575Z,97.30
2018-09-02T00:31:27.724Z,97.80
2018-09-02T00:33:55.931Z,98.55
2018-09-02T00:36:24.012Z,98.32
2018-09-02T00:38:52.126Z,98.73
2018-09-02T00:41:20.250Z,98.83
2018-09-02T00:48:48.752Z,97.62
2018-09-02T00:51:16.836Z,96.99
2018-09-02T00:53:44.988Z,96.72
2018-09-02T00:56:13.160Z,96.89
2018-09-02T00:58:41.240Z,96.20
2018-09-02T01:01:09.380Z,96.79
2018-09-02T01:03:37.521Z,97.30
2018-09-02T01:06:05.856Z,97.65
2018-09-02T01:08:33.973Z,97.45
2018-09-02T01:11:02.107Z,97.44
2018-09-02T01:13:30.215Z,98.52
2018-09-02T01:15:58.319Z,98.34
2018-09-02T01:18:26.444Z,98.05
2018-09-02T01:20:54.574Z,98.45
2018-09-02T01:23:22.731Z,99.02
2018-09-02T01:25:50.891Z,98.76
2018-09-02T01:28:19.071Z,98.14
2018-09-02T01:30:47.171Z,98.07
2018-09-02T01:33:15.309Z,98.10
2018-09-02T01:35:43.417Z,97.70
2018-09-02T01:38:11.564Z,97.84
2018-09-02T01:40:39.707Z,97.92
2018-09-02T01:43:07.802Z,98.12
2018-09-02T01:45:35.913Z,98.42
2018-09-02T01:48:04.139Z,98.66
2018-09-02T01:50:32.295Z,99.08
2018-09-02T01:53:00.387Z,98.65
2018-09-02T01:55:28.527Z,98.13
2018-09-02T01:57:56.638Z,98.75
2018-09-02T02:00:24.781Z,98.68
2018-09-02T02:02:52.860Z,98.55
2018-09-02T02:05:20.985Z,98.65
2018-09-02T02:07:49.147Z,98.98
2018-09-02T02:10:17.293Z,99.11
2018-09-02T02:12:45.420Z,99.52
2018-09-02T02:15:13.539Z,99.59
2018-09-02T02:17:41.666Z,99.61
2018-09-02T02:20:09.764Z,99.38
2018-09-02T02:22:37.887Z,99.57
2018-09-02T02:25:05.999Z,99.40
2018-09-02T02:27:34.090Z,99.03
2018-09-02T02:30:02.251Z,98.81
2018-09-02T02:32:30.345Z,98.41
2018-09-02T02:34:58.436Z,98.39
2018-09-02T02:37:26.559Z,98.37
2018-09-02T02:39:54.689Z,98.73
2018-09-02T02:42:22.804Z,98.75
2018-09-02T02:44:50.951Z,98.92
2018-09-02T02:47:19.034Z,98.52
2018-09-02T02:49:47.177Z,98.00
2018-09-02T02:52:16.189Z,97.22
2018-09-02T02:54:44.324Z,98.35
2018-09-02T02:57:12.510Z,99.13
2018-09-02T02:59:40.665Z,99.41
2018-09-02T03:02:08.820Z,98.25
2018-09-02T03:04:39.872Z,98.11
2018-09-02T03:07:07.975Z,98.06
2018-09-02T03:09:36.093Z,98.36
2018-09-02T03:12:04.186Z,98.37
2018-09-02T03:14:32.285Z,98.20
2018-09-02T03:17:00.448Z,97.89
2018-09-02T03:19:28.556Z,97.80
2018-09-02T03:22:03.426Z,97.45
2018-09-02T03:24:31.558Z,98.16
2018-09-02T03:26:59.619Z,98.26
2018-09-02T03:29:27.744Z,99.02
2018-09-02T03:31:55.841Z,99.23
2018-09-02T03:34:23.948Z,99.23
2018-09-02T03:36:52.055Z,99.47
2018-09-02T03:39:20.184Z,99.47
2018-09-02T03:41:48.291Z,99.61
2018-09-02T03:44:16.413Z,99.82
2018-09-02T03:46:44.523Z,100.00
2018-09-02T03:49:12.643Z,100.00
2018-09-02T03:51:40.840Z,100.00
2018-09-02T03:54:08.978Z,99.90
2018-09-02T03:56:37.067Z,99.98
2018-09-02T03:59:05.233Z,99.00
2018-09-02T04:01:33.316Z,98.78
2018-09-02T04:04:01.467Z,99.33
2018-09-02T04:06:29.558Z,99.60
2018-09-02T04:08:57.685Z,99.28
2018-09-02T04:11:25.979Z,99.39
2018-09-02T04:13:54.032Z,98.88
2018-09-02T04:16:22.111Z,99.12
2018-09-02T04:18:50.236Z,99.36
2018-09-02T04:21:18.350Z,99.23
2018-09-02T04:23:47.019Z,99.16
2018-09-02T04:26:15.152Z,98.61
2018-09-02T04:28:43.248Z,97.37
2018-09-02T04:31:11.372Z,98.22
2018-09-02T04:33:39.566Z,98.73
2018-09-02T04:36:07.608Z,99.19
2018-09-02T04:38:35.702Z,98.88
2018-09-02T04:41:03.829Z,98.60
2018-09-02T04:43:31.952Z,98.66
2018-09-02T04:46:00.048Z,98.53
2018-09-02T04:48:28.151Z,98.82
2018-09-02T04:50:56.275Z,99.11
2018-09-02T04:53:24.357Z,98.49
2018-09-02T04:55:52.470Z,97.99
2018-09-02T04:58:20.563Z,97.64
2018-09-02T05:00:48.635Z,98.16
2018-09-02T05:03:16.751Z,98.41
2018-09-02T05:05:44.874Z,99.30
2018-09-02T05:08:13.000Z,99.63
2018-09-02T05:10:41.121Z,99.77
2018-09-02T05:13:09.235Z,99.42
2018-09-02T05:15:37.364Z,99.95
2018-09-02T05:18:05.515Z,99.04
2018-09-02T05:20:33.599Z,99.11
2018-09-02T05:23:01.731Z,98.53
2018-09-02T05:25:29.864Z,98.79
2018-09-02T05:27:57.960Z,98.61
2018-09-02T05:30:26.063Z,98.83
2018-09-02T05:32:54.171Z,98.43
2018-09-02T05:35:22.299Z,98.59
2018-09-02T05:37:50.407Z,99.52
2018-09-02T05:40:18.529Z,99.09
2018-09-02T05:42:46.672Z,98.62
2018-09-02T05:45:14.795Z,98.59
2018-09-02T05:47:42.908Z,99.51
2018-09-02T05:50:11.008Z,100.00
2018-09-02T05:52:39.133Z,99.99
2018-09-02T05:55:07.392Z,99.30
2018-09-02T05:57:35.666Z,99.56
2018-09-02T06:00:03.837Z,98.85
2018-09-02T06:02:31.951Z,98.88
2018-09-02T06:05:00.021Z,98.65
2018-09-02T06:07:28.142Z,98.84
2018-09-02T06:09:56.776Z,98.95
2018-09-02T06:12:24.908Z,98.79
2018-09-02T06:14:52.996Z,98.78
2018-09-02T06:17:21.214Z,98.41
2018-09-02T06:19:49.216Z,98.22
2018-09-02T06:22:17.304Z,97.96
2018-09-02T06:24:45.391Z,97.97
2018-09-02T06:27:13.544Z,97.85
2018-09-02T06:29:42.211Z,98.06
2018-09-02T06:32:10.342Z,97.91
2018-09-02T06:34:38.450Z,97.47
2018-09-02T06:37:06.575Z,97.19
2018-09-02T06:39:34.679Z,97.25
2018-09-02T06:42:02.781Z,96.59
2018-09-02T06:44:30.894Z,96.94
2018-09-02T06:46:59.011Z,96.70
2018-09-02T06:49:27.132Z,97.32
2018-09-02T06:51:55.287Z,97.61
2018-09-02T06:54:23.575Z,97.35
2018-09-02T06:56:51.709Z,97.38
2018-09-02T06:59:19.815Z,97.80
2018-09-02T07:01:47.954Z,97.60
2018-09-02T07:04:16.124Z,97.61
2018-09-02T07:06:44.319Z,96.75
2018-09-02T07:09:12.406Z,96.47
2018-09-02T07:11:40.536Z,95.67
2018-09-02T07:14:08.659Z,95.65
2018-09-02T07:16:36.781Z,95.41
2018-09-02T07:19:04.909Z,94.57
2018-09-02T07:21:33.054Z,93.64
2018-09-02T07:24:01.209Z,94.53
2018-09-02T07:26:29.317Z,94.58
2018-09-02T07:28:57.403Z,94.26
2018-09-02T07:31:25.583Z,93.30
2018-09-02T07:33:54.252Z,93.35
2018-09-02T07:36:22.367Z,94.11
2018-09-02T07:38:50.469Z,92.24
2018-09-02T07:41:18.599Z,92.71
2018-09-02T07:43:46.749Z,93.03
2018-09-02T07:46:14.854Z,93.03
2018-09-02T07:48:42.956Z,92.34
2018-09-02T07:51:11.075Z,91.83
2018-09-02T07:53:39.196Z,91.42
2018-09-02T07:56:07.315Z,91.79
2018-09-02T07:58:35.449Z,91.33
2018-09-02T08:01:03.534Z,90.81
2018-09-02T08:03:31.656Z,90.99
2018-09-02T08:05:59.772Z,89.85
2018-09-02T08:08:27.918Z,90.32
2018-09-02T08:10:56.025Z,90.40
2018-09-02T08:13:24.170Z,90.40
2018-09-02T08:15:52.432Z,89.25
2018-09-02T08:18:20.531Z,86.64
2018-09-02T08:20:48.659Z,87.02
2018-09-02T08:23:16.733Z,87.67
2018-09-02T08:25:44.825Z,87.81
2018-09-02T08:28:13.954Z,88.43
2018-09-02T08:30:42.060Z,88.23
2018-09-02T08:33:10.263Z,88.90
2018-09-02T08:35:38.275Z,89.07
2018-09-02T08:38:06.370Z,88.52
2018-09-02T08:40:34.451Z,88.92
2018-09-02T08:43:02.552Z,87.45
2018-09-02T08:45:30.708Z,87.49
2018-09-02T08:47:58.877Z,87.66
2018-09-02T08:51:30.269Z,85.68
2018-09-02T08:53:58.377Z,85.06
2018-09-02T08:56:26.535Z,85.35
2018-09-02T08:58:54.710Z,84.54
2018-09-02T09:01:22.827Z,83.71
2018-09-02T09:03:51.303Z,83.64
2018-09-02T09:06:19.409Z,84.80
2018-09-02T09:08:47.909Z,85.34
2018-09-02T09:11:15.639Z,84.87
2018-09-02T09:13:43.731Z,85.02
2018-09-02T09:16:11.820Z,85.18
2018-09-02T09:18:39.929Z,83.94
2018-09-02T09:21:08.264Z,83.59
2018-09-02T09:23:36.378Z,82.21
2018-09-02T09:26:04.480Z,78.99
2018-09-02T09:28:32.578Z,80.59
2018-09-02T09:31:00.732Z,80.66
2018-09-02T09:33:28.903Z,77.09
2018-09-02T09:35:57.588Z,75.01
2018-09-02T09:38:25.687Z,72.35
2018-09-02T09:40:53.831Z,71.16
2018-09-02T09:43:21.975Z,68.73
2018-09-02T09:45:50.072Z,70.58
2018-09-02T09:48:18.165Z,70.71
2018-09-02T09:50:46.305Z,72.06
2018-09-02T09:53:14.362Z,74.02
2018-09-02T09:55:42.586Z,74.07
2018-09-02T09:58:10.619Z,71.73
2018-09-02T10:00:44.259Z,73.43
2018-09-02T10:03:12.403Z,73.31
2018-09-02T10:05:40.567Z,73.24
2018-09-02T10:08:08.648Z,74.28
2018-09-02T10:10:36.862Z,73.38
2018-09-02T10:13:05.205Z,72.66
2018-09-02T10:15:33.333Z,71.95
2018-09-02T10:18:01.623Z,68.91
2018-09-02T10:20:29.825Z,69.82
2018-09-02T10:22:57.913Z,69.28
2018-09-02T10:25:25.996Z,69.36
2018-09-02T10:27:54.087Z,69.28
2018-09-02T10:30:22.213Z,68.53
2018-09-02T10:32:50.364Z,67.69
2018-09-02T10:35:18.724Z,66.60
2018-09-02T10:37:46.951Z,67.02
2018-09-02T10:40:15.033Z,67.27
2018-09-02T10:42:43.139Z,67.41
2018-09-02T10:45:11.241Z,68.22
2018-09-02T10:47:39.339Z,67.45
2018-09-02T10:50:08.511Z,69.50
2018-09-02T10:52:36.676Z,69.27
2018-09-02T10:55:04.779Z,67.11
2018-09-02T10:57:32.921Z,66.93
2018-09-02T11:00:01.004Z,65.35
2018-09-02T11:02:29.111Z,65.83
2018-09-02T11:04:57.225Z,65.05
2018-09-02T11:07:25.349Z,65.58
2018-09-02T11:09:53.423Z,63.91
2018-09-02T11:12:21.582Z,64.44
2018-09-02T11:14:49.706Z,64.79
2018-09-02T11:17:17.811Z,65.76
2018-09-02T11:19:45.940Z,65.47
2018-09-02T11:22:14.029Z,66.33
2018-09-02T11:24:42.200Z,65.41
2018-09-02T11:27:10.288Z,64.61
2018-09-02T11:29:38.391Z,67.05
2018-09-02T11:32:06.593Z,68.31
2018-09-02T11:34:34.699Z,66.35
2018-09-02T11:37:02.915Z,66.38
2018-09-02T11:39:31.009Z,65.80
2018-09-02T11:41:59.087Z,65.96
2018-09-02T11:44:27.214Z,64.09
2018-09-02T11:46:55.362Z,63.76
2018-09-02T11:49:23.418Z,64.05
2018-09-02T11:51:51.546Z,63.78
2018-09-02T11:54:19.650Z,64.23
2018-09-02T11:56:47.775Z,65.79
2018-09-02T11:59:15.883Z,64.15
2018-09-02T12:01:43.991Z,63.45
2018-09-02T12:04:12.076Z,64.31
2018-09-02T12:06:40.239Z,64.23
2018-09-02T12:09:09.010Z,63.63
2018-09-02T12:11:37.645Z,63.79
2018-09-02T12:14:05.804Z,61.92
2018-09-02T12:16:33.969Z,62.83
2018-09-02T12:19:02.126Z,63.54
2018-09-02T12:21:30.248Z,62.87
2018-09-02T12:23:58.454Z,62.14
2018-09-02T12:26:26.568Z,62.93
2018-09-02T12:28:54.739Z,63.04
2018-09-02T12:31:22.902Z,62.57
2018-09-02T12:38:46.550Z,62.77
2018-09-02T12:41:14.658Z,64.12
2018-09-02T12:43:42.776Z,62.69
2018-09-02T12:46:10.930Z,62.33
2018-09-02T12:48:39.061Z,60.49
2018-09-02T12:51:07.211Z,62.15
2018-09-02T12:53:35.469Z,62.56
2018-09-02T12:56:03.607Z,63.34
2018-09-02T12:58:31.700Z,62.70
2018-09-02T13:01:06.582Z,63.29
2018-09-02T13:03:34.691Z,62.79
2018-09-02T13:06:02.817Z,63.75
2018-09-02T13:08:31.159Z,64.67
2018-09-02T13:10:59.278Z,65.10
2018-09-02T13:13:27.379Z,65.84
2018-09-02T13:15:55.534Z,66.17
2018-09-02T13:18:23.730Z,66.03
2018-09-02T13:20:51.864Z,66.12
2018-09-02T13:23:19.992Z,64.62
2018-09-02T13:25:48.120Z,65.19
2018-09-02T13:28:16.258Z,64.52
2018-09-02T13:30:44.377Z,64.33
2018-09-02T13:33:12.487Z,63.52
2018-09-02T13:35:40.599Z,65.14
2018-09-02T13:38:08.740Z,65.09
2018-09-02T13:40:36.837Z,66.44
2018-09-02T13:43:05.415Z,67.16
2018-09-02T13:45:33.514Z,67.68
2018-09-02T13:48:01.605Z,68.60
2018-09-02T13:50:29.918Z,66.17
2018-09-02T13:52:58.025Z,66.42
2018-09-02T13:55:26.115Z,66.56
2018-09-02T13:57:54.235Z,66.45
2018-09-02T14:00:22.318Z,67.93
2018-09-02T14:02:50.445Z,66.51
2018-09-02T14:05:18.519Z,67.41
2018-09-02T14:07:46.704Z,68.67
2018-09-02T14:10:14.914Z,69.07
2018-09-02T14:12:43.064Z,68.27
2018-09-02T14:15:11.186Z,68.44
2018-09-02T14:17:39.386Z,68.59
2018-09-02T14:20:07.485Z,68.74
2018-09-02T14:22:35.706Z,69.07
2018-09-02T14:25:03.814Z,70.14
2018-09-02T14:27:31.954Z,69.37
2018-09-02T14:30:00.079Z,69.35
2018-09-02T14:32:28.177Z,70.49
2018-09-02T14:34:56.337Z,69.86
2018-09-02T14:37:24.487Z,70.28
2018-09-02T14:39:52.632Z,70.61
2018-09-02T14:42:20.719Z,70.19
2018-09-02T14:44:48.834Z,69.90
2018-09-02T14:47:16.972Z,71.66
2018-09-02T14:49:45.076Z,72.34
2018-09-02T14:52:13.269Z,72.35
2018-09-02T14:54:41.455Z,72.46
2018-09-02T14:57:09.604Z,72.44
2018-09-02T14:59:37.861Z,72.34
2018-09-02T15:02:06.043Z,72.87
2018-09-02T15:04:34.208Z,73.04
2018-09-02T15:07:02.455Z,73.71
2018-09-02T15:09:30.649Z,73.57
2018-09-02T15:11:58.931Z,73.20
2018-09-02T15:14:27.175Z,74.27
2018-09-02T15:16:55.329Z,75.12
2018-09-02T15:19:23.581Z,75.41
2018-09-02T15:21:51.845Z,75.67
2018-09-02T15:24:20.205Z,76.39
2018-09-02T15:26:48.369Z,75.89
2018-09-02T15:29:16.499Z,76.08
2018-09-02T15:31:44.638Z,77.26
2018-09-02T15:34:12.773Z,76.26
2018-09-02T15:36:40.874Z,76.83
2018-09-02T15:39:10.138Z,77.87
2018-09-02T15:41:38.592Z,77.66
2018-09-02T15:44:06.998Z,77.79
2018-09-02T15:46:35.049Z,77.88
2018-09-02T15:49:03.171Z,78.21
2018-09-02T15:51:31.317Z,78.74
2018-09-02T15:53:59.414Z,78.81
2018-09-02T15:56:27.597Z,79.57
2018-09-02T15:58:55.720Z,79.18
2018-09-02T16:01:23.895Z,79.06
2018-09-02T16:03:52.098Z,79.79
2018-09-02T16:06:20.228Z,79.52
2018-09-02T16:08:48.401Z,79.78
2018-09-02T16:11:16.520Z,79.99
2018-09-02T16:13:44.641Z,79.44
2018-09-02T16:16:12.762Z,79.87
2018-09-02T16:18:40.889Z,80.40
2018-09-02T16:21:09.070Z,80.07
2018-09-02T16:23:37.180Z,80.85
2018-09-02T16:26:05.304Z,81.06
2018-09-02T16:28:33.459Z,80.73
2018-09-02T16:31:01.610Z,80.86
2018-09-02T16:33:29.740Z,81.62
2018-09-02T16:35:57.910Z,81.29
2018-09-02T16:38:25.991Z,81.53
2018-09-02T16:40:54.101Z,81.78
2018-09-02T16:43:22.173Z,81.91
2018-09-02T16:45:50.297Z,81.94
2018-09-02T16:48:18.511Z,81.48
2018-09-02T16:50:46.647Z,82.30
2018-09-02T16:53:14.882Z,82.90
2018-09-02T16:58:17.323Z,82.98
2018-09-02T17:00:45.483Z,83.43
2018-09-02T17:03:13.586Z,83.75
2018-09-02T17:05:41.772Z,83.30
2018-09-02T17:08:09.910Z,83.67
2018-09-02T17:10:37.988Z,83.53
2018-09-02T17:13:07.104Z,84.07
2018-09-02T17:15:35.240Z,83.94
2018-09-02T17:18:03.427Z,84.56
2018-09-02T17:20:38.077Z,85.43
2018-09-02T17:23:11.104Z,85.34
2018-09-02T17:25:39.599Z,85.69
2018-09-02T17:28:07.707Z,85.40
2018-09-02T17:30:36.204Z,86.02
2018-09-02T17:33:04.560Z,86.43
2018-09-02T17:35:32.622Z,85.90
2018-09-02T17:38:00.776Z,86.40
2018-09-02T17:40:28.907Z,86.20
2018-09-02T17:42:57.044Z,87.06
2018-09-02T17:45:25.199Z,87.04
2018-09-02T17:47:53.515Z,87.21
2018-09-02T17:50:21.724Z,87.44
2018-09-02T17:52:49.879Z,87.32
2018-09-02T17:55:18.014Z,87.70
2018-09-02T17:57:46.194Z,87.55
2018-09-02T18:00:19.584Z,87.29
2018-09-02T18:02:47.730Z,87.00
2018-09-02T18:05:16.131Z,87.83
2018-09-02T18:07:44.235Z,88.03
2018-09-02T18:10:12.447Z,88.14
2018-09-02T18:12:40.581Z,88.71
2018-09-02T18:15:08.692Z,89.20
2018-09-02T18:17:36.814Z,89.74
2018-09-02T18:20:05.010Z,89.96
2018-09-02T18:22:33.119Z,89.76
2018-09-02T18:25:01.270Z,90.29
2018-09-02T18:27:31.733Z,90.32
2018-09-02T18:30:00.023Z,90.42
2018-09-02T18:32:29.821Z,91.79
2018-09-02T18:34:58.788Z,91.98
2018-09-02T18:37:26.895Z,91.69
2018-09-02T18:39:55.784Z,91.91
2018-09-02T18:42:23.934Z,92.18
2018-09-02T18:44:52.072Z,91.76
2018-09-02T18:47:20.309Z,92.56
2018-09-02T18:49:48.470Z,92.81
2018-09-02T18:52:17.363Z,93.21
2018-09-02T18:54:45.511Z,94.02
2018-09-02T18:57:13.643Z,93.57
2018-09-02T18:59:41.746Z,94.60
2018-09-02T19:02:10.598Z,94.55
2018-09-02T19:04:38.767Z,94.51
2018-09-02T19:07:07.479Z,95.46
2018-09-02T19:09:35.749Z,95.49
2018-09-02T19:12:03.866Z,94.99
2018-09-02T19:14:32.055Z,94.92
2018-09-02T19:17:00.190Z,95.23
2018-09-02T19:19:28.299Z,96.25
2018-09-02T19:21:56.403Z,96.01
2018-09-02T19:24:24.667Z,96.68
2018-09-02T19:26:52.778Z,96.42
2018-09-02T19:29:20.935Z,96.14
2018-09-02T19:31:49.167Z,96.09
2018-09-02T19:34:17.288Z,96.68
2018-09-02T19:36:45.386Z,97.16
2018-09-02T19:39:13.473Z,97.45
2018-09-02T19:41:41.797Z,97.26
2018-09-02T19:44:09.915Z,98.00
2018-09-02T19:46:38.007Z,97.92
2018-09-02T19:49:06.608Z,98.42
2018-09-02T19:51:34.727Z,98.47
2018-09-02T19:54:02.943Z,98.91
2018-09-02T19:56:31.002Z,98.55
2018-09-02T19:58:59.175Z,98.52
2018-09-02T20:01:27.263Z,98.32
2018-09-02T20:08:55.180Z,98.10
2018-09-02T20:11:23.278Z,97.31
2018-09-02T20:13:51.355Z,97.79
2018-09-02T20:16:19.448Z,97.89
2018-09-02T20:18:47.555Z,97.98
2018-09-02T20:21:15.631Z,98.20
2018-09-02T20:23:43.763Z,98.74
2018-09-02T20:26:11.895Z,99.21
2018-09-02T20:28:39.997Z,99.28
2018-09-02T20:31:08.112Z,99.27
2018-09-02T20:33:36.239Z,98.69
2018-09-02T20:36:04.351Z,99.15
2018-09-02T20:38:32.584Z,99.07
2018-09-02T20:41:00.760Z,99.20
2018-09-02T20:43:28.858Z,99.50
2018-09-02T20:45:56.952Z,98.99
2018-09-02T20:48:25.011Z,99.05
2018-09-02T20:50:53.123Z,99.73
2018-09-02T20:53:21.236Z,100.00
2018-09-02T20:55:49.345Z,100.00
2018-09-02T20:58:17.463Z,100.00
2018-09-02T21:00:45.538Z,99.41
2018-09-02T21:03:13.653Z,99.26
2018-09-02T21:05:41.839Z,99.72
2018-09-02T21:08:09.954Z,99.50
2018-09-02T21:10:38.082Z,99.63
2018-09-02T21:13:06.216Z,98.89
2018-09-02T21:15:34.355Z,98.49
2018-09-02T21:18:03.125Z,98.85
2018-09-02T21:20:31.235Z,99.02
2018-09-02T21:22:59.326Z,99.17
2018-09-02T21:25:27.451Z,99.32
2018-09-02T21:27:55.581Z,98.63
2018-09-02T21:30:23.709Z,98.23
2018-09-02T21:32:51.812Z,99.21
2018-09-02T21:35:19.965Z,99.40
2018-09-02T21:37:48.110Z,98.83
2018-09-02T21:40:16.325Z,98.60
2018-09-02T21:42:44.465Z,98.62
2018-09-02T21:45:12.579Z,98.73
2018-09-02T21:47:40.640Z,99.40
2018-09-02T21:50:09.165Z,98.90
2018-09-02T21:52:37.298Z,98.38
2018-09-02T21:55:05.566Z,97.95
2018-09-02T21:57:33.765Z,98.48
2018-09-02T22:00:02.055Z,97.13
2018-09-02T22:02:30.164Z,97.54
2018-09-02T22:04:58.371Z,97.60
2018-09-02T22:07:26.550Z,97.40
2018-09-02T22:09:54.660Z,97.23
2018-09-02T22:12:22.696Z,96.82
2018-09-02T22:14:50.777Z,96.99
2018-09-02T22:17:18.885Z,96.88
2018-09-02T22:19:46.973Z,96.97
2018-09-02T22:22:15.084Z,96.60
2018-09-02T22:24:43.187Z,96.59
2018-09-02T22:27:11.328Z,96.81
2018-09-02T22:29:39.450Z,97.04
2018-09-02T22:32:07.573Z,97.08
2018-09-02T22:34:35.719Z,96.15
2018-09-02T22:37:03.839Z,95.97
2018-09-02T22:39:31.962Z,96.15
2018-09-02T22:42:00.178Z,96.31
2018-09-02T22:44:28.187Z,96.35
2018-09-02T22:46:56.310Z,96.22
2018-09-02T22:49:24.464Z,96.16
2018-09-02T22:51:52.564Z,95.77
2018-09-02T22:54:20.939Z,96.29
2018-09-02T22:56:49.060Z,96.06
2018-09-02T22:59:17.136Z,96.19
2018-09-02T23:01:45.221Z,96.31
2018-09-02T23:04:13.393Z,96.57
2018-09-02T23:06:41.511Z,96.27
2018-09-02T23:09:09.710Z,95.88
2018-09-02T23:11:37.849Z,96.23
2018-09-02T23:14:05.961Z,96.19
2018-09-02T23:16:34.603Z,95.88
2018-09-02T23:19:03.169Z,95.60
2018-09-02T23:21:31.335Z,95.88
2018-09-02T23:23:59.435Z,95.88
2018-09-02T23:26:27.531Z,96.10
2018-09-02T23:28:55.649Z,95.73
2018-09-02T23:31:23.748Z,95.89
2018-09-02T23:33:52.583Z,96.12
2018-09-02T23:36:20.960Z,96.04
2018-09-02T23:38:49.065Z,96.30
2018-09-02T23:41:17.168Z,97.09
2018-09-02T23:43:45.356Z,96.42
2018-09-02T23:46:13.443Z,96.10
2018-09-02T23:48:41.586Z,96.20
2018-09-02T23:51:09.751Z,96.43
2018-09-02T23:53:37.925Z,96.77
2018-09-02T23:56:06.171Z,96.67
2018-09-02T23:58:34.365Z,96.35
